sensor_id;sensor_type;location;lat;lon;timestamp;P1;durP1;ratioP1;P2;durP2;ratioP2
59374;SDS011;45172;55.006;73.460;2023-07-30T00:01:40;7.97;;;6.30;;
59374;SDS011;45172;55.006;73.460;2023-07-30T00:04:06;9.85;;;6.20;;
59374;SDS011;45172;55.006;73.460;2023-07-30T00:06:32;7.85;;;6.40;;
59374;SDS011;45172;55.006;73.460;2023-07-30T00:08:59;8.35;;;5.75;;
59374;SDS011;45172;55.006;73.460;2023-07-30T00:11:28;10.13;;;6.53;;
59374;SDS011;45172;55.006;73.460;2023-07-30T00:13:54;8.10;;;6.38;;
59374;SDS011;45172;55.006;73.460;2023-07-30T00:16:20;7.10;;;6.40;;
59374;SDS011;45172;55.006;73.460;2023-07-30T00:18:47;10.20;;;5.78;;
59374;SDS011;45172;55.006;73.460;2023-07-30T00:21:13;8.00;;;6.22;;
59374;SDS011;45172;55.006;73.460;2023-07-30T00:23:40;8.77;;;6.40;;
59374;SDS011;45172;55.006;73.460;2023-07-30T00:26:06;9.43;;;6.15;;
59374;SDS011;45172;55.006;73.460;2023-07-30T00:28:35;10.63;;;6.20;;
59374;SDS011;45172;55.006;73.460;2023-07-30T00:31:04;7.55;;;6.82;;
59374;SDS011;45172;55.006;73.460;2023-07-30T00:33:30;7.35;;;6.63;;
59374;SDS011;45172;55.006;73.460;2023-07-30T00:35:57;9.85;;;6.88;;
59374;SDS011;45172;55.006;73.460;2023-07-30T00:38:23;7.72;;;6.78;;
59374;SDS011;45172;55.006;73.460;2023-07-30T00:40:49;6.95;;;6.35;;
59374;SDS011;45172;55.006;73.460;2023-07-30T00:43:15;11.93;;;6.78;;
59374;SDS011;45172;55.006;73.460;2023-07-30T00:45:42;9.35;;;6.60;;
59374;SDS011;45172;55.006;73.460;2023-07-30T00:48:10;8.00;;;6.90;;
59374;SDS011;45172;55.006;73.460;2023-07-30T00:50:39;8.55;;;7.53;;
59374;SDS011;45172;55.006;73.460;2023-07-30T00:53:07;9.48;;;7.38;;
59374;SDS011;45172;55.006;73.460;2023-07-30T00:55:35;8.00;;;7.22;;
59374;SDS011;45172;55.006;73.460;2023-07-30T00:58:01;8.77;;;7.32;;
59374;SDS011;45172;55.006;73.460;2023-07-30T01:00:29;7.28;;;6.57;;
59374;SDS011;45172;55.006;73.460;2023-07-30T01:02:57;8.82;;;7.32;;
59374;SDS011;45172;55.006;73.460;2023-07-30T01:05:23;8.30;;;7.18;;
59374;SDS011;45172;55.006;73.460;2023-07-30T01:07:49;5.85;;;5.45;;
59374;SDS011;45172;55.006;73.460;2023-07-30T01:10:17;8.57;;;5.85;;
59374;SDS011;45172;55.006;73.460;2023-07-30T01:12:45;5.82;;;5.20;;
59374;SDS011;45172;55.006;73.460;2023-07-30T01:15:12;9.20;;;5.47;;
59374;SDS011;45172;55.006;73.460;2023-07-30T01:17:39;6.00;;;5.40;;
59374;SDS011;45172;55.006;73.460;2023-07-30T01:20:06;6.88;;;5.50;;
59374;SDS011;45172;55.006;73.460;2023-07-30T01:22:32;6.65;;;6.07;;
59374;SDS011;45172;55.006;73.460;2023-07-30T01:24:58;7.15;;;6.28;;
59374;SDS011;45172;55.006;73.460;2023-07-30T01:27:28;6.93;;;5.85;;
59374;SDS011;45172;55.006;73.460;2023-07-30T01:30:13;7.18;;;6.30;;
59374;SDS011;45172;55.006;73.460;2023-07-30T01:32:48;6.78;;;5.50;;
59374;SDS011;45172;55.006;73.460;2023-07-30T01:35:16;5.80;;;5.30;;
59374;SDS011;45172;55.006;73.460;2023-07-30T01:37:46;5.03;;;4.60;;
59374;SDS011;45172;55.006;73.460;2023-07-30T01:40:14;7.18;;;4.88;;
59374;SDS011;45172;55.006;73.460;2023-07-30T01:42:40;6.18;;;4.88;;
59374;SDS011;45172;55.006;73.460;2023-07-30T01:45:07;5.05;;;4.55;;
59374;SDS011;45172;55.006;73.460;2023-07-30T01:47:33;5.00;;;4.40;;
59374;SDS011;45172;55.006;73.460;2023-07-30T01:50:00;5.85;;;4.75;;
59374;SDS011;45172;55.006;73.460;2023-07-30T01:52:26;5.30;;;4.80;;
59374;SDS011;45172;55.006;73.460;2023-07-30T01:54:52;7.10;;;4.40;;
59374;SDS011;45172;55.006;73.460;2023-07-30T01:57:18;5.18;;;4.25;;
59374;SDS011;45172;55.006;73.460;2023-07-30T01:59:45;7.03;;;4.60;;
59374;SDS011;45172;55.006;73.460;2023-07-30T02:02:12;7.65;;;4.65;;
59374;SDS011;45172;55.006;73.460;2023-07-30T02:04:38;5.38;;;4.90;;
59374;SDS011;45172;55.006;73.460;2023-07-30T02:07:04;5.85;;;5.28;;
59374;SDS011;45172;55.006;73.460;2023-07-30T02:09:30;5.18;;;4.78;;
59374;SDS011;45172;55.006;73.460;2023-07-30T02:11:57;6.15;;;5.22;;
59374;SDS011;45172;55.006;73.460;2023-07-30T02:14:24;8.82;;;4.70;;
59374;SDS011;45172;55.006;73.460;2023-07-30T02:16:51;15.75;;;5.28;;
59374;SDS011;45172;55.006;73.460;2023-07-30T02:19:17;9.63;;;4.97;;
59374;SDS011;45172;55.006;73.460;2023-07-30T02:21:43;8.98;;;4.78;;
59374;SDS011;45172;55.006;73.460;2023-07-30T02:24:09;9.00;;;5.57;;
59374;SDS011;45172;55.006;73.460;2023-07-30T02:26:37;6.13;;;5.25;;
59374;SDS011;45172;55.006;73.460;2023-07-30T02:29:04;5.45;;;4.95;;
59374;SDS011;45172;55.006;73.460;2023-07-30T02:31:31;5.28;;;4.65;;
59374;SDS011;45172;55.006;73.460;2023-07-30T02:33:57;5.55;;;5.13;;
59374;SDS011;45172;55.006;73.460;2023-07-30T02:36:24;8.68;;;5.30;;
59374;SDS011;45172;55.006;73.460;2023-07-30T02:38:50;8.23;;;5.32;;
59374;SDS011;45172;55.006;73.460;2023-07-30T02:41:16;7.00;;;4.90;;
59374;SDS011;45172;55.006;73.460;2023-07-30T02:43:43;7.28;;;5.18;;
59374;SDS011;45172;55.006;73.460;2023-07-30T02:46:09;6.25;;;4.80;;
59374;SDS011;45172;55.006;73.460;2023-07-30T02:48:35;6.00;;;5.40;;
59374;SDS011;45172;55.006;73.460;2023-07-30T02:51:01;7.55;;;5.18;;
59374;SDS011;45172;55.006;73.460;2023-07-30T02:53:27;5.40;;;4.90;;
59374;SDS011;45172;55.006;73.460;2023-07-30T02:55:54;4.85;;;4.45;;
59374;SDS011;45172;55.006;73.460;2023-07-30T02:58:20;5.57;;;4.43;;
59374;SDS011;45172;55.006;73.460;2023-07-30T03:00:46;5.68;;;4.15;;
59374;SDS011;45172;55.006;73.460;2023-07-30T03:03:20;6.25;;;4.38;;
59374;SDS011;45172;55.006;73.460;2023-07-30T03:05:46;9.10;;;4.15;;
59374;SDS011;45172;55.006;73.460;2023-07-30T03:08:12;5.60;;;4.50;;
59374;SDS011;45172;55.006;73.460;2023-07-30T03:10:39;5.53;;;4.60;;
59374;SDS011;45172;55.006;73.460;2023-07-30T03:13:05;5.25;;;4.38;;
59374;SDS011;45172;55.006;73.460;2023-07-30T03:15:31;6.50;;;4.60;;
59374;SDS011;45172;55.006;73.460;2023-07-30T03:17:57;7.10;;;4.55;;
59374;SDS011;45172;55.006;73.460;2023-07-30T03:20:24;4.88;;;3.97;;
59374;SDS011;45172;55.006;73.460;2023-07-30T03:22:50;6.35;;;4.28;;
59374;SDS011;45172;55.006;73.460;2023-07-30T03:25:16;6.90;;;3.97;;
59374;SDS011;45172;55.006;73.460;2023-07-30T03:27:42;7.85;;;4.40;;
59374;SDS011;45172;55.006;73.460;2023-07-30T03:30:09;4.57;;;4.05;;
59374;SDS011;45172;55.006;73.460;2023-07-30T03:32:36;7.68;;;4.18;;
59374;SDS011;45172;55.006;73.460;2023-07-30T03:35:02;9.25;;;5.40;;
59374;SDS011;45172;55.006;73.460;2023-07-30T03:37:28;9.15;;;4.90;;
59374;SDS011;45172;55.006;73.460;2023-07-30T03:39:54;4.97;;;4.00;;
59374;SDS011;45172;55.006;73.460;2023-07-30T03:42:21;5.85;;;4.07;;
59374;SDS011;45172;55.006;73.460;2023-07-30T03:44:48;4.00;;;3.70;;
59374;SDS011;45172;55.006;73.460;2023-07-30T03:47:14;6.45;;;4.00;;
59374;SDS011;45172;55.006;73.460;2023-07-30T03:49:40;8.18;;;4.53;;
59374;SDS011;45172;55.006;73.460;2023-07-30T03:52:06;6.60;;;4.47;;
59374;SDS011;45172;55.006;73.460;2023-07-30T03:54:32;7.57;;;4.30;;
59374;SDS011;45172;55.006;73.460;2023-07-30T03:56:59;6.05;;;3.85;;
59374;SDS011;45172;55.006;73.460;2023-07-30T03:59:26;5.82;;;3.53;;
59374;SDS011;45172;55.006;73.460;2023-07-30T04:01:54;3.80;;;3.50;;
59374;SDS011;45172;55.006;73.460;2023-07-30T04:04:21;4.13;;;3.78;;
59374;SDS011;45172;55.006;73.460;2023-07-30T04:06:47;3.60;;;3.30;;
59374;SDS011;45172;55.006;73.460;2023-07-30T04:09:14;5.63;;;3.55;;
59374;SDS011;45172;55.006;73.460;2023-07-30T04:11:41;6.90;;;3.50;;
59374;SDS011;45172;55.006;73.460;2023-07-30T04:14:07;5.32;;;4.10;;
59374;SDS011;45172;55.006;73.460;2023-07-30T04:16:35;4.30;;;4.00;;
59374;SDS011;45172;55.006;73.460;2023-07-30T04:19:04;6.43;;;3.35;;
59374;SDS011;45172;55.006;73.460;2023-07-30T04:21:30;6.30;;;3.42;;
59374;SDS011;45172;55.006;73.460;2023-07-30T04:23:56;5.68;;;4.20;;
59374;SDS011;45172;55.006;73.460;2023-07-30T04:26:25;6.32;;;3.92;;
59374;SDS011;45172;55.006;73.460;2023-07-30T04:28:51;5.88;;;4.00;;
59374;SDS011;45172;55.006;73.460;2023-07-30T04:31:18;4.00;;;3.65;;
59374;SDS011;45172;55.006;73.460;2023-07-30T04:33:44;6.43;;;3.53;;
59374;SDS011;45172;55.006;73.460;2023-07-30T04:36:10;4.72;;;3.30;;
59374;SDS011;45172;55.006;73.460;2023-07-30T04:38:37;7.13;;;3.78;;
59374;SDS011;45172;55.006;73.460;2023-07-30T04:41:04;6.35;;;3.78;;
59374;SDS011;45172;55.006;73.460;2023-07-30T04:43:30;4.38;;;3.50;;
59374;SDS011;45172;55.006;73.460;2023-07-30T04:45:56;4.72;;;3.60;;
59374;SDS011;45172;55.006;73.460;2023-07-30T04:48:22;5.78;;;3.92;;
59374;SDS011;45172;55.006;73.460;2023-07-30T04:50:49;6.40;;;3.85;;
59374;SDS011;45172;55.006;73.460;2023-07-30T04:53:15;5.45;;;4.30;;
59374;SDS011;45172;55.006;73.460;2023-07-30T04:55:42;10.20;;;5.20;;
59374;SDS011;45172;55.006;73.460;2023-07-30T04:58:11;8.07;;;4.78;;
59374;SDS011;45172;55.006;73.460;2023-07-30T05:00:37;3.90;;;3.60;;
59374;SDS011;45172;55.006;73.460;2023-07-30T05:03:03;8.57;;;4.07;;
59374;SDS011;45172;55.006;73.460;2023-07-30T05:05:30;3.90;;;3.35;;
59374;SDS011;45172;55.006;73.460;2023-07-30T05:07:56;5.03;;;3.65;;
59374;SDS011;45172;55.006;73.460;2023-07-30T05:10:23;4.22;;;3.50;;
59374;SDS011;45172;55.006;73.460;2023-07-30T05:12:49;3.97;;;3.63;;
59374;SDS011;45172;55.006;73.460;2023-07-30T05:15:17;3.65;;;3.35;;
59374;SDS011;45172;55.006;73.460;2023-07-30T05:17:43;4.45;;;3.25;;
59374;SDS011;45172;55.006;73.460;2023-07-30T05:20:09;4.50;;;3.60;;
59374;SDS011;45172;55.006;73.460;2023-07-30T05:22:36;4.00;;;3.60;;
59374;SDS011;45172;55.006;73.460;2023-07-30T05:25:02;5.03;;;3.40;;
59374;SDS011;45172;55.006;73.460;2023-07-30T05:27:28;8.18;;;3.15;;
59374;SDS011;45172;55.006;73.460;2023-07-30T05:29:57;7.22;;;4.40;;
59374;SDS011;45172;55.006;73.460;2023-07-30T05:32:23;5.35;;;3.92;;
59374;SDS011;45172;55.006;73.460;2023-07-30T05:34:49;3.97;;;3.67;;
59374;SDS011;45172;55.006;73.460;2023-07-30T05:37:16;6.97;;;3.83;;
59374;SDS011;45172;55.006;73.460;2023-07-30T05:39:42;3.78;;;3.35;;
59374;SDS011;45172;55.006;73.460;2023-07-30T05:42:08;4.30;;;3.20;;
59374;SDS011;45172;55.006;73.460;2023-07-30T05:44:34;4.35;;;3.80;;
59374;SDS011;45172;55.006;73.460;2023-07-30T05:47:01;5.05;;;3.25;;
59374;SDS011;45172;55.006;73.460;2023-07-30T05:49:27;5.57;;;3.60;;
59374;SDS011;45172;55.006;73.460;2023-07-30T05:51:53;5.57;;;3.50;;
59374;SDS011;45172;55.006;73.460;2023-07-30T05:54:19;5.03;;;3.58;;
59374;SDS011;45172;55.006;73.460;2023-07-30T05:56:45;3.30;;;3.00;;
59374;SDS011;45172;55.006;73.460;2023-07-30T05:59:12;4.85;;;3.30;;
59374;SDS011;45172;55.006;73.460;2023-07-30T06:01:38;6.47;;;3.30;;
59374;SDS011;45172;55.006;73.460;2023-07-30T06:04:04;5.57;;;3.33;;
59374;SDS011;45172;55.006;73.460;2023-07-30T06:06:30;6.22;;;3.50;;
59374;SDS011;45172;55.006;73.460;2023-07-30T06:08:57;5.05;;;3.60;;
59374;SDS011;45172;55.006;73.460;2023-07-30T06:11:23;7.40;;;3.40;;
59374;SDS011;45172;55.006;73.460;2023-07-30T06:13:49;5.60;;;3.38;;
59374;SDS011;45172;55.006;73.460;2023-07-30T06:16:16;5.65;;;3.40;;
59374;SDS011;45172;55.006;73.460;2023-07-30T06:18:45;5.80;;;3.40;;
59374;SDS011;45172;55.006;73.460;2023-07-30T06:21:14;4.10;;;3.05;;
59374;SDS011;45172;55.006;73.460;2023-07-30T06:23:40;4.57;;;2.83;;
59374;SDS011;45172;55.006;73.460;2023-07-30T06:26:06;6.22;;;2.90;;
59374;SDS011;45172;55.006;73.460;2023-07-30T06:28:33;4.45;;;3.38;;
59374;SDS011;45172;55.006;73.460;2023-07-30T06:31:00;4.30;;;3.28;;
59374;SDS011;45172;55.006;73.460;2023-07-30T06:33:27;3.95;;;3.15;;
59374;SDS011;45172;55.006;73.460;2023-07-30T06:35:53;3.55;;;2.75;;
59374;SDS011;45172;55.006;73.460;2023-07-30T06:38:19;4.55;;;3.05;;
59374;SDS011;45172;55.006;73.460;2023-07-30T06:40:45;4.72;;;2.80;;
59374;SDS011;45172;55.006;73.460;2023-07-30T06:43:12;4.93;;;3.20;;
59374;SDS011;45172;55.006;73.460;2023-07-30T06:45:38;3.20;;;2.90;;
59374;SDS011;45172;55.006;73.460;2023-07-30T06:48:04;3.30;;;2.72;;
59374;SDS011;45172;55.006;73.460;2023-07-30T06:50:30;3.30;;;2.85;;
59374;SDS011;45172;55.006;73.460;2023-07-30T06:52:57;4.40;;;3.13;;
59374;SDS011;45172;55.006;73.460;2023-07-30T06:55:24;3.65;;;3.10;;
59374;SDS011;45172;55.006;73.460;2023-07-30T06:57:50;3.63;;;3.10;;
59374;SDS011;45172;55.006;73.460;2023-07-30T07:00:16;4.93;;;3.10;;
59374;SDS011;45172;55.006;73.460;2023-07-30T07:02:47;5.72;;;3.17;;
59374;SDS011;45172;55.006;73.460;2023-07-30T07:05:14;11.27;;;3.30;;
59374;SDS011;45172;55.006;73.460;2023-07-30T07:07:41;4.25;;;3.40;;
59374;SDS011;45172;55.006;73.460;2023-07-30T07:10:07;3.78;;;3.10;;
59374;SDS011;45172;55.006;73.460;2023-07-30T07:12:36;7.03;;;3.22;;
59374;SDS011;45172;55.006;73.460;2023-07-30T07:15:04;6.78;;;3.42;;
59374;SDS011;45172;55.006;73.460;2023-07-30T07:17:31;3.20;;;3.00;;
59374;SDS011;45172;55.006;73.460;2023-07-30T07:19:57;3.30;;;2.97;;
59374;SDS011;45172;55.006;73.460;2023-07-30T07:22:24;4.88;;;3.00;;
59374;SDS011;45172;55.006;73.460;2023-07-30T07:24:53;4.10;;;2.90;;
59374;SDS011;45172;55.006;73.460;2023-07-30T07:27:19;7.10;;;2.70;;
59374;SDS011;45172;55.006;73.460;2023-07-30T07:29:46;5.82;;;3.08;;
59374;SDS011;45172;55.006;73.460;2023-07-30T07:32:14;3.50;;;2.53;;
59374;SDS011;45172;55.006;73.460;2023-07-30T07:34:40;7.20;;;3.05;;
59374;SDS011;45172;55.006;73.460;2023-07-30T07:37:06;4.72;;;2.97;;
59374;SDS011;45172;55.006;73.460;2023-07-30T07:39:32;3.70;;;2.95;;
59374;SDS011;45172;55.006;73.460;2023-07-30T07:41:59;3.50;;;3.17;;
59374;SDS011;45172;55.006;73.460;2023-07-30T07:44:25;3.67;;;2.88;;
59374;SDS011;45172;55.006;73.460;2023-07-30T07:46:52;5.78;;;3.00;;
59374;SDS011;45172;55.006;73.460;2023-07-30T07:49:19;5.18;;;3.05;;
59374;SDS011;45172;55.006;73.460;2023-07-30T07:51:46;3.35;;;3.05;;
59374;SDS011;45172;55.006;73.460;2023-07-30T07:54:12;3.83;;;2.92;;
59374;SDS011;45172;55.006;73.460;2023-07-30T07:56:39;4.78;;;2.78;;
59374;SDS011;45172;55.006;73.460;2023-07-30T07:59:05;7.05;;;3.65;;
59374;SDS011;45172;55.006;73.460;2023-07-30T08:01:31;4.68;;;3.40;;
59374;SDS011;45172;55.006;73.460;2023-07-30T08:03:57;9.02;;;3.70;;
59374;SDS011;45172;55.006;73.460;2023-07-30T08:06:24;6.05;;;3.60;;
59374;SDS011;45172;55.006;73.460;2023-07-30T08:08:50;3.42;;;3.20;;
59374;SDS011;45172;55.006;73.460;2023-07-30T08:11:16;4.22;;;3.67;;
59374;SDS011;45172;55.006;73.460;2023-07-30T08:13:42;4.25;;;3.40;;
59374;SDS011;45172;55.006;73.460;2023-07-30T08:16:13;4.32;;;2.90;;
59374;SDS011;45172;55.006;73.460;2023-07-30T08:18:40;4.68;;;3.00;;
59374;SDS011;45172;55.006;73.460;2023-07-30T08:21:06;10.38;;;5.55;;
59374;SDS011;45172;55.006;73.460;2023-07-30T08:23:32;5.00;;;4.60;;
59374;SDS011;45172;55.006;73.460;2023-07-30T08:25:58;4.85;;;3.55;;
59374;SDS011;45172;55.006;73.460;2023-07-30T08:28:24;5.95;;;5.38;;
59374;SDS011;45172;55.006;73.460;2023-07-30T08:30:50;6.78;;;4.80;;
59374;SDS011;45172;55.006;73.460;2023-07-30T08:33:17;7.97;;;3.45;;
59374;SDS011;45172;55.006;73.460;2023-07-30T08:35:43;5.18;;;2.85;;
59374;SDS011;45172;55.006;73.460;2023-07-30T08:38:09;6.47;;;3.50;;
59374;SDS011;45172;55.006;73.460;2023-07-30T08:40:36;7.20;;;3.30;;
59374;SDS011;45172;55.006;73.460;2023-07-30T08:43:04;3.60;;;3.05;;
59374;SDS011;45172;55.006;73.460;2023-07-30T08:45:30;9.80;;;4.38;;
59374;SDS011;45172;55.006;73.460;2023-07-30T08:47:56;10.32;;;6.13;;
59374;SDS011;45172;55.006;73.460;2023-07-30T08:50:23;6.28;;;4.32;;
59374;SDS011;45172;55.006;73.460;2023-07-30T08:52:50;5.18;;;4.15;;
59374;SDS011;45172;55.006;73.460;2023-07-30T08:55:17;8.93;;;3.17;;
59374;SDS011;45172;55.006;73.460;2023-07-30T08:57:44;6.07;;;2.90;;
59374;SDS011;45172;55.006;73.460;2023-07-30T09:00:12;5.90;;;3.15;;
59374;SDS011;45172;55.006;73.460;2023-07-30T09:02:44;7.85;;;3.65;;
59374;SDS011;45172;55.006;73.460;2023-07-30T09:05:14;8.30;;;3.20;;
59374;SDS011;45172;55.006;73.460;2023-07-30T09:07:40;3.90;;;3.22;;
59374;SDS011;45172;55.006;73.460;2023-07-30T09:10:07;7.28;;;3.67;;
59374;SDS011;45172;55.006;73.460;2023-07-30T09:12:34;10.70;;;5.03;;
59374;SDS011;45172;55.006;73.460;2023-07-30T09:15:05;6.68;;;3.35;;
59374;SDS011;45172;55.006;73.460;2023-07-30T09:17:32;7.53;;;3.20;;
59374;SDS011;45172;55.006;73.460;2023-07-30T09:20:02;11.35;;;3.40;;
59374;SDS011;45172;55.006;73.460;2023-07-30T09:22:34;5.32;;;3.70;;
59374;SDS011;45172;55.006;73.460;2023-07-30T09:25:04;6.18;;;4.18;;
59374;SDS011;45172;55.006;73.460;2023-07-30T09:27:31;5.03;;;3.35;;
59374;SDS011;45172;55.006;73.460;2023-07-30T09:29:59;4.18;;;2.80;;
59374;SDS011;45172;55.006;73.460;2023-07-30T09:32:31;4.05;;;2.67;;
59374;SDS011;45172;55.006;73.460;2023-07-30T09:35:04;3.85;;;2.83;;
59374;SDS011;45172;55.006;73.460;2023-07-30T09:37:38;7.85;;;3.30;;
59374;SDS011;45172;55.006;73.460;2023-07-30T09:40:06;13.70;;;6.85;;
59374;SDS011;45172;55.006;73.460;2023-07-30T09:42:34;11.60;;;4.03;;
59374;SDS011;45172;55.006;73.460;2023-07-30T09:45:05;9.55;;;4.15;;
59374;SDS011;45172;55.006;73.460;2023-07-30T09:47:38;9.82;;;4.03;;
59374;SDS011;45172;55.006;73.460;2023-07-30T09:50:04;4.47;;;3.95;;
59374;SDS011;45172;55.006;73.460;2023-07-30T09:52:31;5.07;;;3.75;;
59374;SDS011;45172;55.006;73.460;2023-07-30T09:54:57;9.63;;;2.78;;
59374;SDS011;45172;55.006;73.460;2023-07-30T09:57:24;13.98;;;2.72;;
59374;SDS011;45172;55.006;73.460;2023-07-30T09:59:50;3.28;;;2.45;;
59374;SDS011;45172;55.006;73.460;2023-07-30T10:02:18;5.82;;;3.00;;
59374;SDS011;45172;55.006;73.460;2023-07-30T10:04:46;5.28;;;4.13;;
59374;SDS011;45172;55.006;73.460;2023-07-30T10:07:16;4.38;;;2.97;;
59374;SDS011;45172;55.006;73.460;2023-07-30T10:09:47;3.53;;;2.70;;
59374;SDS011;45172;55.006;73.460;2023-07-30T10:12:18;7.65;;;5.30;;
59374;SDS011;45172;55.006;73.460;2023-07-30T10:14:51;6.82;;;3.45;;
59374;SDS011;45172;55.006;73.460;2023-07-30T10:17:17;6.18;;;2.90;;
59374;SDS011;45172;55.006;73.460;2023-07-30T10:19:47;4.20;;;3.35;;
59374;SDS011;45172;55.006;73.460;2023-07-30T10:52:10;6.22;;;2.85;;
59374;SDS011;45172;55.006;73.460;2023-07-30T10:55:45;32.25;;;13.07;;
59374;SDS011;45172;55.006;73.460;2023-07-30T10:59:04;20.35;;;3.47;;
59374;SDS011;45172;55.006;73.460;2023-07-30T11:01:37;4.13;;;2.60;;
59374;SDS011;45172;55.006;73.460;2023-07-30T11:04:05;3.17;;;2.45;;
59374;SDS011;45172;55.006;73.460;2023-07-30T11:06:33;3.83;;;2.72;;
59374;SDS011;45172;55.006;73.460;2023-07-30T11:09:17;4.22;;;2.30;;
59374;SDS011;45172;55.006;73.460;2023-07-30T11:11:47;5.15;;;2.47;;
59374;SDS011;45172;55.006;73.460;2023-07-30T11:14:15;5.32;;;2.20;;
59374;SDS011;45172;55.006;73.460;2023-07-30T11:16:49;4.63;;;2.70;;
59374;SDS011;45172;55.006;73.460;2023-07-30T11:19:27;2.78;;;2.47;;
59374;SDS011;45172;55.006;73.460;2023-07-30T11:21:59;5.05;;;2.83;;
59374;SDS011;45172;55.006;73.460;2023-07-30T11:24:35;6.90;;;2.75;;
59374;SDS011;45172;55.006;73.460;2023-07-30T11:27:02;4.25;;;3.08;;
59374;SDS011;45172;55.006;73.460;2023-07-30T11:29:29;3.70;;;2.72;;
59374;SDS011;45172;55.006;73.460;2023-07-30T11:31:57;3.50;;;2.70;;
59374;SDS011;45172;55.006;73.460;2023-07-30T11:34:25;5.30;;;2.50;;
59374;SDS011;45172;55.006;73.460;2023-07-30T11:36:53;3.80;;;2.75;;
59374;SDS011;45172;55.006;73.460;2023-07-30T11:39:21;4.72;;;2.63;;
59374;SDS011;45172;55.006;73.460;2023-07-30T11:41:49;3.35;;;2.92;;
59374;SDS011;45172;55.006;73.460;2023-07-30T11:44:31;5.97;;;3.00;;
59374;SDS011;45172;55.006;73.460;2023-07-30T11:47:00;4.22;;;3.25;;
59374;SDS011;45172;55.006;73.460;2023-07-30T11:49:26;6.88;;;3.47;;
59374;SDS011;45172;55.006;73.460;2023-07-30T11:52:03;7.82;;;3.75;;
59374;SDS011;45172;55.006;73.460;2023-07-30T11:54:34;5.05;;;3.00;;
59374;SDS011;45172;55.006;73.460;2023-07-30T11:57:00;3.45;;;2.90;;
59374;SDS011;45172;55.006;73.460;2023-07-30T11:59:26;3.17;;;2.88;;
59374;SDS011;45172;55.006;73.460;2023-07-30T12:01:53;7.03;;;3.53;;
59374;SDS011;45172;55.006;73.460;2023-07-30T12:04:20;4.20;;;2.63;;
59374;SDS011;45172;55.006;73.460;2023-07-30T12:06:50;4.53;;;3.00;;
59374;SDS011;45172;55.006;73.460;2023-07-30T12:09:19;3.75;;;2.45;;
59374;SDS011;45172;55.006;73.460;2023-07-30T12:12:00;5.30;;;2.53;;
59374;SDS011;45172;55.006;73.460;2023-07-30T12:17:09;4.68;;;3.33;;
59374;SDS011;45172;55.006;73.460;2023-07-30T12:19:35;5.72;;;2.67;;
59374;SDS011;45172;55.006;73.460;2023-07-30T12:22:02;5.20;;;2.42;;
59374;SDS011;45172;55.006;73.460;2023-07-30T12:24:28;3.13;;;2.83;;
59374;SDS011;45172;55.006;73.460;2023-07-30T12:26:57;9.43;;;5.80;;
59374;SDS011;45172;55.006;73.460;2023-07-30T12:29:26;6.45;;;3.45;;
59374;SDS011;45172;55.006;73.460;2023-07-30T12:31:52;7.90;;;2.90;;
59374;SDS011;45172;55.006;73.460;2023-07-30T12:34:19;9.13;;;3.00;;
59374;SDS011;45172;55.006;73.460;2023-07-30T12:36:46;10.82;;;2.55;;
59374;SDS011;45172;55.006;73.460;2023-07-30T12:39:12;14.00;;;2.30;;
59374;SDS011;45172;55.006;73.460;2023-07-30T12:41:39;17.58;;;1.95;;
59374;SDS011;45172;55.006;73.460;2023-07-30T12:44:05;4.40;;;1.50;;
59374;SDS011;45172;55.006;73.460;2023-07-30T12:46:31;7.00;;;1.80;;
59374;SDS011;45172;55.006;73.460;2023-07-30T12:48:58;7.55;;;2.00;;
59374;SDS011;45172;55.006;73.460;2023-07-30T12:51:32;9.32;;;2.38;;
59374;SDS011;45172;55.006;73.460;2023-07-30T12:53:59;6.35;;;1.80;;
59374;SDS011;45172;55.006;73.460;2023-07-30T12:56:25;11.23;;;1.60;;
59374;SDS011;45172;55.006;73.460;2023-07-30T12:58:52;7.40;;;1.58;;
59374;SDS011;45172;55.006;73.460;2023-07-30T13:01:19;5.72;;;1.80;;
59374;SDS011;45172;55.006;73.460;2023-07-30T13:03:45;5.32;;;1.65;;
59374;SDS011;45172;55.006;73.460;2023-07-30T13:06:15;9.80;;;1.80;;
59374;SDS011;45172;55.006;73.460;2023-07-30T13:08:42;2.47;;;1.55;;
59374;SDS011;45172;55.006;73.460;2023-07-30T13:11:10;7.43;;;1.60;;
59374;SDS011;45172;55.006;73.460;2023-07-30T13:13:40;5.65;;;1.77;;
59374;SDS011;45172;55.006;73.460;2023-07-30T13:16:06;4.82;;;1.60;;
59374;SDS011;45172;55.006;73.460;2023-07-30T13:18:32;2.95;;;1.67;;
59374;SDS011;45172;55.006;73.460;2023-07-30T13:20:58;4.90;;;1.40;;
59374;SDS011;45172;55.006;73.460;2023-07-30T13:23:26;4.78;;;1.60;;
59374;SDS011;45172;55.006;73.460;2023-07-30T13:25:54;4.70;;;1.58;;
59374;SDS011;45172;55.006;73.460;2023-07-30T13:28:20;3.03;;;1.73;;
59374;SDS011;45172;55.006;73.460;2023-07-30T13:30:46;3.90;;;1.52;;
59374;SDS011;45172;55.006;73.460;2023-07-30T13:33:14;3.58;;;2.30;;
59374;SDS011;45172;55.006;73.460;2023-07-30T13:35:40;3.00;;;2.22;;
59374;SDS011;45172;55.006;73.460;2023-07-30T13:38:06;4.78;;;2.15;;
59374;SDS011;45172;55.006;73.460;2023-07-30T13:40:32;4.75;;;2.90;;
59374;SDS011;45172;55.006;73.460;2023-07-30T13:42:58;6.40;;;2.40;;
59374;SDS011;45172;55.006;73.460;2023-07-30T13:45:24;13.15;;;7.45;;
59374;SDS011;45172;55.006;73.460;2023-07-30T13:47:50;6.05;;;4.38;;
59374;SDS011;45172;55.006;73.460;2023-07-30T13:50:17;9.50;;;5.18;;
59374;SDS011;45172;55.006;73.460;2023-07-30T13:52:44;6.97;;;6.28;;
59374;SDS011;45172;55.006;73.460;2023-07-30T13:55:10;9.98;;;4.75;;
59374;SDS011;45172;55.006;73.460;2023-07-30T13:57:36;9.05;;;3.90;;
59374;SDS011;45172;55.006;73.460;2023-07-30T14:00:03;5.20;;;2.88;;
59374;SDS011;45172;55.006;73.460;2023-07-30T14:02:30;5.05;;;3.80;;
59374;SDS011;45172;55.006;73.460;2023-07-30T15:14:03;43.95;;;23.42;;
59374;SDS011;45172;55.006;73.460;2023-07-30T15:18:06;42.85;;;24.80;;
59374;SDS011;45172;55.006;73.460;2023-07-30T23:45:39;7.90;;;7.10;;
